Time;durP1;ratioP1;P1;durP2;ratioP2;P2;SDS_P1;SDS_P2;PMS_P1;PMS_P2;Temp;Humidity;BMP_temperature;BMP_pressure;BME280_temperature;BME280_humidity;BME280_pressure;Samples;Min_cycle;Max_cycle;Signal;HPM_P1;HPM_P2
2023/10/08 00:00:39;;;;;;;5.47;1.60;;;;;;;17.68;60.13;101174.69;4921650;28;20043;-83
2023/10/08 00:02:46;;;;;;;2.50;1.30;;;;;;;17.62;60.36;101177.53;4932829;28;20046;-82
2023/10/08 00:05:16;;;;;;;3.25;1.55;;;;;;;17.69;60.08;101170.25;4932995;28;20055;-83
2023/10/08 00:07:43;;;;;;;6.60;1.67;;;;;;;17.63;59.97;101181.94;4915364;28;20061;-83
2023/10/08 00:10:10;;;;;;;3.85;1.50;;;;;;;17.51;60.56;101184.97;4936621;28;20050;-83
2023/10/08 00:12:36;;;;;;;2.60;1.23;;;;;;;17.35;61.11;101188.13;4938112;28;20054;-82
2023/10/08 00:15:07;;;;;;;4.10;1.55;;;;;;;17.36;61.10;101187.19;4937946;29;20053;-84
2023/10/08 00:17:34;;;;;;;3.83;1.60;;;;;;;17.33;61.11;101195.25;4928735;28;20065;-82
2023/10/08 00:20:01;;;;;;;3.47;1.73;;;;;;;17.31;61.19;101191.78;4927162;29;20047;-82
2023/10/08 00:22:30;;;;;;;3.50;1.42;;;;;;;17.35;61.12;101193.44;4927686;28;20047;-83
2023/10/08 00:24:57;;;;;;;4.50;1.70;;;;;;;17.25;61.25;101192.00;4916844;29;20055;-82
2023/10/08 00:27:24;;;;;;;3.83;1.77;;;;;;;17.14;61.74;101191.44;4919154;29;20054;-82
2023/10/08 00:29:51;;;;;;;3.30;1.42;;;;;;;17.14;61.63;101188.78;4936365;28;20051;-82
2023/10/08 00:32:18;;;;;;;5.05;1.50;;;;;;;17.14;61.65;101188.78;4914139;29;20070;-85
2023/10/08 00:34:46;;;;;;;3.45;1.40;;;;;;;17.18;61.46;101183.34;4926113;28;20134;-82
2023/10/08 00:37:16;;;;;;;3.83;1.55;;;;;;;17.44;60.39;101192.28;4923886;28;20043;-82
2023/10/08 00:39:45;;;;;;;4.00;1.60;;;;;;;17.51;60.27;101187.63;4942219;28;20055;-82
2023/10/08 00:42:12;;;;;;;6.43;2.38;;;;;;;17.43;60.73;101195.84;4934833;28;20078;-82
2023/10/08 00:44:51;;;;;;;3.40;1.50;;;;;;;17.36;60.89;101200.44;4938893;29;20067;-82
2023/10/08 00:47:20;;;;;;;6.57;2.10;;;;;;;17.07;61.77;101192.53;4931345;28;20154;-83
2023/10/08 00:50:02;;;;;;;4.25;1.48;;;;;;;17.42;60.52;101202.06;4920078;28;20070;-82
2023/10/08 00:52:30;;;;;;;3.50;1.40;;;;;;;17.50;60.08;101199.19;4935202;28;20047;-84
2023/10/08 00:57:35;;;;;;;3.58;1.50;;;;;;;17.25;60.93;101192.00;4933364;28;20106;-83
2023/10/08 01:00:06;;;;;;;2.90;1.42;;;;;;;17.20;60.96;101199.19;4938979;28;20074;-83
2023/10/08 01:02:46;;;;;;;4.72;1.75;;;;;;;16.88;62.16;101203.69;4925181;29;20047;-83
2023/10/08 01:05:18;;;;;;;2.55;1.55;;;;;;;16.65;63.29;101205.19;4920364;29;20049;-85
2023/10/08 01:07:47;;;;;;;3.97;1.40;;;;;;;16.36;64.28;101198.03;4936975;28;20052;-83
2023/10/08 01:10:19;;;;;;;4.10;1.40;;;;;;;16.16;64.87;101201.22;4921451;28;20047;-83
2023/10/08 01:13:07;;;;;;;2.93;1.57;;;;;;;16.05;65.71;101205.91;4929766;28;20051;-87
2023/10/08 01:15:37;;;;;;;4.15;1.48;;;;;;;15.89;65.96;101211.63;4929994;28;20299;-85
2023/10/08 01:18:06;;;;;;;4.45;1.83;;;;;;;15.80;66.43;101212.72;4937011;28;20043;-88
2023/10/08 01:20:37;;;;;;;3.55;1.75;;;;;;;15.72;66.40;101213.78;4925986;29;20078;-87
2023/10/08 01:23:13;;;;;;;4.20;1.75;;;;;;;15.60;66.77;101212.31;4932980;28;20390;-87
2023/10/08 01:25:42;;;;;;;5.10;1.88;;;;;;;15.53;67.22;101203.63;4936934;28;20051;-84
2023/10/08 01:28:18;;;;;;;6.90;1.60;;;;;;;15.45;67.54;101200.28;4932491;28;20047;-83
2023/10/08 01:30:46;;;;;;;2.97;1.50;;;;;;;15.33;67.32;101211.16;4939397;28;20051;-84
2023/10/08 01:33:15;;;;;;;4.45;1.80;;;;;;;15.19;68.13;101208.81;4932144;28;20062;-83
2023/10/08 01:35:43;;;;;;;2.83;1.65;;;;;;;15.16;68.72;101209.75;4942681;28;20048;-83
2023/10/08 01:38:13;;;;;;;2.90;1.70;;;;;;;15.11;67.93;101223.06;4934950;28;20059;-83
2023/10/08 01:40:41;;;;;;;4.40;1.80;;;;;;;15.12;68.75;101221.31;4946496;28;20052;-83
2023/10/08 01:43:09;;;;;;;3.60;1.45;;;;;;;15.06;68.30;101224.97;4928579;28;20135;-85
2023/10/08 01:45:43;;;;;;;2.58;1.20;;;;;;;15.05;68.33;101219.69;4936708;28;20051;-84
2023/10/08 01:48:10;;;;;;;4.30;1.80;;;;;;;14.94;68.71;101223.41;4932081;28;20047;-83
2023/10/08 01:50:37;;;;;;;2.97;1.17;;;;;;;14.87;68.48;101213.88;4936928;28;20047;-84
2023/10/08 01:53:08;;;;;;;4.88;1.55;;;;;;;14.76;69.18;101222.03;4921608;29;20050;-85
2023/10/08 01:55:48;;;;;;;3.72;1.70;;;;;;;14.52;69.98;101222.47;4921330;29;20047;-83
2023/10/08 01:58:17;;;;;;;3.20;1.70;;;;;;;14.55;70.19;101228.56;4932845;28;20046;-83
2023/10/08 02:00:47;;;;;;;1.77;1.17;;;;;;;14.64;69.29;101226.69;4931200;28;20051;-83
2023/10/08 02:03:16;;;;;;;4.63;1.45;;;;;;;14.52;69.91;101220.69;4925204;28;20054;-84
2023/10/08 02:05:43;;;;;;;3.95;1.70;;;;;;;14.48;69.87;101221.66;4945120;28;20048;-83
2023/10/08 02:08:12;;;;;;;3.80;1.70;;;;;;;14.26;70.93;101216.78;4934354;28;20072;-83
2023/10/08 02:10:40;;;;;;;4.63;2.13;;;;;;;14.32;70.54;101226.34;4936558;28;20044;-82
2023/10/08 02:13:08;;;;;;;5.45;2.08;;;;;;;14.10;70.82;101225.84;4931307;28;20066;-84
2023/10/08 02:15:42;;;;;;;3.70;1.60;;;;;;;14.01;70.89;101220.75;4940469;28;20062;-83
2023/10/08 02:18:09;;;;;;;2.55;1.58;;;;;;;13.87;71.95;101224.47;4930822;28;20053;-83
2023/10/08 02:20:36;;;;;;;5.60;1.55;;;;;;;14.34;71.02;101218.41;4936532;28;20149;-86
2023/10/08 02:23:05;;;;;;;4.57;1.65;;;;;;;14.92;69.23;101211.16;4916872;29;20054;-88
2023/10/08 02:25:32;;;;;;;4.05;2.20;;;;;;;15.05;68.60;101212.63;4933407;28;20075;-86
2023/10/08 02:27:58;;;;;;;6.78;2.03;;;;;;;15.21;68.25;101197.31;4936959;28;20051;-83
2023/10/08 02:30:27;;;;;;;3.95;1.80;;;;;;;15.31;67.89;101203.25;4936846;28;20058;-83
2023/10/08 02:32:54;;;;;;;4.85;2.05;;;;;;;15.55;66.79;101209.75;4941222;29;20051;-83
2023/10/08 02:35:22;;;;;;;3.95;1.73;;;;;;;15.55;66.51;101207.09;4933161;28;20475;-82
2023/10/08 02:37:49;;;;;;;3.75;1.67;;;;;;;15.65;66.31;101195.38;4923049;29;20499;-83
2023/10/08 02:40:37;;;;;;;4.28;1.80;;;;;;;15.87;65.79;101208.13;4931759;29;20118;-84
2023/10/08 02:43:06;;;;;;;3.03;1.63;;;;;;;16.13;64.92;101209.25;4941408;28;20058;-83
2023/10/08 02:45:37;;;;;;;3.85;1.90;;;;;;;16.04;65.13;101204.19;4935242;28;20058;-83
2023/10/08 02:48:12;;;;;;;3.10;1.70;;;;;;;15.86;65.54;101209.06;4931404;28;20055;-88
2023/10/08 02:50:40;;;;;;;3.72;1.63;;;;;;;15.85;65.46;101215.25;4938684;28;20380;-83
2023/10/08 02:53:10;;;;;;;4.80;1.90;;;;;;;15.86;65.74;101224.94;4932210;28;20127;-83
2023/10/08 02:55:44;;;;;;;4.45;2.08;;;;;;;15.68;66.14;101225.34;4940624;28;20130;-82
2023/10/08 02:58:14;;;;;;;5.05;1.70;;;;;;;15.78;65.85;101225.09;4929671;28;20059;-84
2023/10/08 03:00:48;;;;;;;2.92;1.58;;;;;;;16.01;65.01;101225.47;4939699;28;20115;-83
2023/10/08 03:03:16;;;;;;;5.13;1.77;;;;;;;15.84;65.46;101232.03;4934818;28;20046;-82
2023/10/08 03:05:56;;;;;;;3.22;1.42;;;;;;;15.62;66.18;101235.16;4942988;28;20047;-84
2023/10/08 03:08:23;;;;;;;4.18;1.73;;;;;;;15.48;66.56;101237.25;4915501;28;20051;-82
2023/10/08 03:11:02;;;;;;;3.55;1.38;;;;;;;14.94;68.21;101233.97;4888010;29;20149;-83
2023/10/08 03:13:30;;;;;;;2.97;1.60;;;;;;;14.49;69.40;101233.97;4892827;29;20051;-83
2023/10/08 03:18:25;;;;;;;3.85;1.65;;;;;;;14.16;70.22;101225.75;4933688;28;20097;-82
2023/10/08 03:20:51;;;;;;;3.88;1.50;;;;;;;13.95;70.24;101218.19;4941600;28;20480;-82
2023/10/08 03:23:33;;;;;;;3.60;1.85;;;;;;;13.77;71.24;101214.97;4935818;28;20149;-82
2023/10/08 03:26:10;;;;;;;4.10;2.15;;;;;;;13.65;71.82;101217.81;4915820;29;20126;-83
2023/10/08 03:28:41;;;;;;;3.13;1.48;;;;;;;13.51;72.04;101205.72;4919309;28;20052;-83
2023/10/08 03:31:17;;;;;;;3.28;1.50;;;;;;;13.46;72.07;101215.44;4925921;28;20555;-82
2023/10/08 03:33:49;;;;;;;6.85;2.03;;;;;;;13.49;72.41;101204.84;4907500;28;20054;-82
2023/10/08 03:36:22;;;;;;;5.75;1.73;;;;;;;13.58;72.06;101211.75;4927983;28;20070;-82
2023/10/08 03:38:52;;;;;;;5.38;1.73;;;;;;;13.67;71.88;101211.63;4924884;29;20134;-87
2023/10/08 03:41:29;;;;;;;4.78;1.90;;;;;;;13.64;71.83;101213.41;4897201;28;20044;-83
2023/10/08 03:44:05;;;;;;;3.92;1.67;;;;;;;13.53;72.31;101209.19;4936339;29;20483;-84
2023/10/08 03:46:39;;;;;;;3.38;1.70;;;;;;;13.49;72.20;101211.91;4937495;28;20508;-82
2023/10/08 03:49:14;;;;;;;3.78;1.65;;;;;;;13.43;72.33;101202.31;4933249;28;20126;-85
2023/10/08 03:51:44;;;;;;;4.60;1.80;;;;;;;13.33;72.79;101205.94;4917726;29;20478;-82
2023/10/08 03:54:18;;;;;;;3.03;1.67;;;;;;;13.22;72.93;101203.44;4924202;28;20055;-82
2023/10/08 03:56:48;;;;;;;2.90;1.50;;;;;;;13.30;72.59;101206.84;4938997;28;20055;-82
2023/10/08 03:59:54;;;;;;;2.67;1.52;;;;;;;13.24;72.83;101212.22;4932989;28;20059;-83
2023/10/08 04:02:24;;;;;;;4.55;1.80;;;;;;;13.20;72.92;101219.28;4916805;29;20415;-83
2023/10/08 04:05:00;;;;;;;3.97;1.52;;;;;;;13.14;72.83;101218.50;4923251;28;20425;-84
2023/10/08 04:12:43;;;;;;;4.28;1.55;;;;;;;13.04;73.60;101223.03;4927182;28;20051;-83
2023/10/08 04:15:16;;;;;;;4.30;1.77;;;;;;;13.00;73.65;101221.31;4937908;28;20055;-83
2023/10/08 04:17:44;;;;;;;4.35;1.95;;;;;;;12.93;74.04;101235.44;4929059;28;20062;-82
2023/10/08 04:20:38;;;;;;;2.60;1.50;;;;;;;12.93;74.07;101232.81;4930941;28;20043;-82
2023/10/08 04:23:20;;;;;;;4.72;1.73;;;;;;;12.94;73.70;101245.09;4930679;28;20043;-86
2023/10/08 04:25:54;;;;;;;3.83;1.80;;;;;;;12.90;74.08;101238.13;4942257;28;20141;-82
2023/10/08 04:28:22;;;;;;;3.85;1.88;;;;;;;12.83;73.89;101243.47;4936120;28;20115;-83
2023/10/08 04:30:51;;;;;;;3.53;2.00;;;;;;;12.74;74.52;101246.19;4933927;28;20058;-82
2023/10/08 04:33:19;;;;;;;2.83;1.48;;;;;;;12.72;74.17;101247.97;4918716;29;20625;-83
2023/10/08 04:35:51;;;;;;;2.75;1.77;;;;;;;12.74;74.06;101242.69;4936870;28;20051;-83
2023/10/08 04:38:21;;;;;;;4.72;1.65;;;;;;;12.60;74.72;101234.94;4936365;28;20047;-82
2023/10/08 04:40:52;;;;;;;4.35;1.58;;;;;;;12.68;73.94;101241.00;4937875;28;20135;-82
2023/10/08 04:43:24;;;;;;;3.90;1.80;;;;;;;12.70;73.65;101231.31;4920282;29;20043;-83
2023/10/08 04:45:52;;;;;;;3.78;1.52;;;;;;;12.71;73.32;101233.06;4923607;29;20107;-83
2023/10/08 04:48:27;;;;;;;4.03;1.80;;;;;;;12.64;73.80;101236.66;4919440;29;20057;-83
2023/10/08 04:51:01;;;;;;;3.75;1.80;;;;;;;12.63;73.55;101232.25;4938396;28;20047;-82
2023/10/08 04:53:35;;;;;;;2.95;1.52;;;;;;;12.61;73.59;101234.06;4929945;29;20061;-82
2023/10/08 04:56:13;;;;;;;3.92;1.92;;;;;;;12.50;73.71;101240.31;4939623;28;20061;-83
2023/10/08 04:58:40;;;;;;;5.75;1.98;;;;;;;12.61;73.32;101236.69;4940044;28;20051;-83
2023/10/08 05:01:17;;;;;;;7.88;1.77;;;;;;;12.50;73.75;101239.44;4929757;28;20047;-84
2023/10/08 05:09:12;;;;;;;5.72;1.63;;;;;;;12.45;73.29;101244.75;4927315;29;20055;-83
2023/10/08 05:17:11;;;;;;;5.03;1.85;;;;;;;12.21;73.98;101232.72;4935553;28;20051;-83
2023/10/08 05:28:09;;;;;;;5.15;2.03;;;;;;;11.94;75.41;101226.78;4933684;28;20071;-83
2023/10/08 05:38:22;;;;;;;5.43;1.98;;;;;;;12.02;75.01;101229.38;4927899;28;20051;-83
2023/10/08 05:41:04;;;;;;;3.78;1.77;;;;;;;12.06;75.10;101228.44;4940411;28;20142;-85
2023/10/08 05:43:55;;;;;;;5.30;2.15;;;;;;;12.14;74.59;101228.38;4914454;29;20051;-83
2023/10/08 06:13:29;;;;;;;8.15;1.90;;;;;;;12.45;73.73;101260.53;4910833;29;20058;-83
2023/10/08 06:18:33;;;;;;;4.05;1.67;;;;;;;12.47;73.51;101271.94;4926362;29;20360;-83
2023/10/08 06:21:10;;;;;;;7.35;1.95;;;;;;;12.43;73.90;101264.09;4911439;28;20047;-83
2023/10/08 06:23:39;;;;;;;5.20;1.58;;;;;;;12.33;74.76;101256.25;4857723;29;20055;-84
2023/10/08 06:26:14;;;;;;;4.70;2.08;;;;;;;12.25;76.00;101265.13;4920879;28;20138;-84
2023/10/08 06:28:44;;;;;;;6.68;1.92;;;;;;;12.48;73.85;101273.69;4926658;28;20047;-83
2023/10/08 06:31:11;;;;;;;4.57;2.03;;;;;;;12.40;75.68;101270.25;4941084;28;20050;-82
2023/10/08 06:33:40;;;;;;;4.70;1.75;;;;;;;12.52;74.67;101264.84;4946160;28;20094;-83
2023/10/08 06:38:44;;;;;;;5.05;2.15;;;;;;;12.61;75.75;101266.50;4918282;28;20130;-83
2023/10/08 06:44:14;;;;;;;5.80;2.03;;;;;;;12.78;75.99;101240.00;4937169;28;20346;-83
2023/10/08 06:46:41;;;;;;;4.55;2.10;;;;;;;12.95;75.48;101242.44;4920602;28;20435;-83
2023/10/08 06:49:12;;;;;;;3.85;2.10;;;;;;;13.05;75.35;101249.34;4927774;29;20059;-83
2023/10/08 06:51:43;;;;;;;5.63;2.70;;;;;;;13.18;74.99;101252.69;4925112;28;20059;-83
2023/10/08 06:54:13;;;;;;;3.92;1.90;;;;;;;13.32;74.22;101259.53;4918407;29;20051;-83
2023/10/08 06:56:46;;;;;;;4.93;2.10;;;;;;;13.41;73.73;101264.72;4937510;28;20055;-83
2023/10/08 06:59:16;;;;;;;4.80;1.80;;;;;;;13.38;73.71;101256.84;4925940;28;20110;-83
2023/10/08 07:01:45;;;;;;;5.53;2.03;;;;;;;13.41;73.79;101264.72;4930367;28;20514;-84
2023/10/08 07:04:13;;;;;;;3.88;1.98;;;;;;;13.41;73.73;101277.91;4927463;28;20047;-82
2023/10/08 07:06:42;;;;;;;7.40;2.10;;;;;;;13.39;74.31;101282.34;4938345;28;20059;-83
2023/10/08 07:09:29;;;;;;;5.47;1.92;;;;;;;13.44;74.51;101277.88;4936607;28;20058;-83
2023/10/08 07:11:57;;;;;;;5.90;1.90;;;;;;;13.56;73.77;101277.69;4920872;28;20067;-83
2023/10/08 07:14:28;;;;;;;3.05;1.95;;;;;;;13.66;73.74;101281.09;4917470;28;20183;-83
2023/10/08 07:17:00;;;;;;;6.60;2.30;;;;;;;13.79;73.54;101292.31;4941678;28;20141;-83
2023/10/08 07:19:37;;;;;;;6.45;2.55;;;;;;;13.93;73.07;101288.59;4924276;28;20062;-83
2023/10/08 07:22:17;;;;;;;4.10;2.17;;;;;;;14.08;72.86;101288.38;4915147;28;20098;-84
2023/10/08 07:24:45;;;;;;;5.47;1.92;;;;;;;14.22;72.56;101288.13;4950369;28;20480;-83
2023/10/08 07:27:13;;;;;;;3.42;1.67;;;;;;;14.33;72.82;101301.16;4929790;29;20048;-83
2023/10/08 07:29:40;;;;;;;6.88;2.15;;;;;;;14.36;73.03;101312.53;4941601;29;20487;-81
2023/10/08 07:32:11;;;;;;;3.13;1.92;;;;;;;14.56;72.19;101314.81;4931097;28;20050;-82
2023/10/08 07:34:39;;;;;;;5.90;2.05;;;;;;;14.69;72.15;101330.50;4937250;28;20049;-82
2023/10/08 07:37:05;;;;;;;5.90;2.25;;;;;;;14.76;71.76;101324.22;4919342;29;20055;-83
2023/10/08 07:42:05;;;;;;;6.53;2.33;;;;;;;15.15;70.54;101321.69;4950856;28;20145;-83
2023/10/08 07:44:35;;;;;;;5.05;2.25;;;;;;;15.17;70.68;101327.81;4916818;29;20059;-83
2023/10/08 07:47:21;;;;;;;6.05;3.00;;;;;;;15.15;71.44;101334.91;4949165;28;20047;-84
2023/10/08 07:49:50;;;;;;;9.02;3.10;;;;;;;15.21;72.12;101344.50;4930049;28;20111;-83
2023/10/08 07:52:18;;;;;;;5.03;2.15;;;;;;;15.25;72.59;101344.41;4934969;28;20051;-82
2023/10/08 07:54:44;;;;;;;3.78;2.10;;;;;;;15.29;72.46;101340.81;4936277;28;20052;-83
2023/10/08 07:57:12;;;;;;;4.60;2.30;;;;;;;15.27;72.27;101339.09;4910886;29;20069;-83
2023/10/08 07:59:46;;;;;;;7.53;2.83;;;;;;;15.38;72.40;101336.19;4938189;28;20043;-83
2023/10/08 08:02:17;;;;;;;3.40;2.03;;;;;;;15.43;71.89;101339.63;4935751;28;20053;-84
2023/10/08 08:04:45;;;;;;;7.00;2.30;;;;;;;15.58;71.92;101346.38;4934862;28;20052;-83
2023/10/08 08:07:16;;;;;;;7.15;2.72;;;;;;;15.61;71.31;101347.19;4926384;28;20065;-83
2023/10/08 08:09:50;;;;;;;6.30;2.50;;;;;;;15.63;71.29;101348.00;4941773;28;20306;-83
2023/10/08 08:12:21;;;;;;;5.75;2.70;;;;;;;15.70;71.67;101347.88;4934654;28;20074;-83
2023/10/08 08:14:51;;;;;;;6.43;2.97;;;;;;;15.69;71.13;101343.50;4937829;29;20399;-83
2023/10/08 08:17:18;;;;;;;6.13;2.65;;;;;;;15.74;71.53;101337.22;4932626;28;20051;-83
2023/10/08 08:19:47;;;;;;;5.90;2.70;;;;;;;15.90;71.54;101353.66;4934395;28;20051;-83
2023/10/08 08:22:20;;;;;;;8.07;2.40;;;;;;;16.07;71.45;101347.94;4934594;29;20047;-83
2023/10/08 08:25:26;;;;;;;9.20;2.80;;;;;;;16.20;70.28;101353.81;4937864;29;20057;-82
2023/10/08 08:27:46;;;;;;;6.55;3.30;;;;;;;16.29;70.57;101358.91;4932621;28;20039;-83
2023/10/08 08:30:17;;;;;;;6.88;2.60;;;;;;;16.40;70.75;101365.72;4919893;28;20062;-83
2023/10/08 08:32:49;;;;;;;3.38;2.30;;;;;;;16.40;70.64;101363.06;4920429;29;20054;-83
2023/10/08 08:35:19;;;;;;;7.97;2.47;;;;;;;16.44;70.14;101356.78;4924369;28;20478;-83
2023/10/08 08:37:49;;;;;;;3.80;2.10;;;;;;;16.46;69.91;101353.16;4933849;28;20502;-84
2023/10/08 08:40:18;;;;;;;6.57;2.25;;;;;;;16.63;69.17;101351.91;4928596;28;20058;-83
2023/10/08 08:42:48;;;;;;;4.63;2.00;;;;;;;16.78;68.17;101362.06;4931835;28;20519;-83
2023/10/08 08:45:22;;;;;;;5.75;2.00;;;;;;;16.89;68.25;101364.50;4919024;29;20063;-83
2023/10/08 08:47:49;;;;;;;4.85;2.00;;;;;;;16.91;66.24;101367.94;4924966;29;20051;-83
2023/10/08 08:50:17;;;;;;;4.18;2.10;;;;;;;16.92;66.48;101369.69;4928611;28;20071;-83
2023/10/08 08:52:45;;;;;;;6.53;2.08;;;;;;;16.94;66.84;101373.16;4920640;28;20051;-82
2023/10/08 08:55:20;;;;;;;3.80;1.83;;;;;;;17.00;67.04;101377.44;4907067;29;20102;-83
2023/10/08 08:57:49;;;;;;;7.18;2.40;;;;;;;17.11;66.78;101370.06;4940024;28;20086;-83
2023/10/08 09:00:17;;;;;;;4.28;2.03;;;;;;;17.09;66.07;101376.31;4914023;29;20063;-84
2023/10/08 09:02:47;;;;;;;6.60;1.95;;;;;;;17.24;65.72;101381.22;4933646;29;20051;-84
2023/10/08 09:05:25;;;;;;;4.22;2.10;;;;;;;17.26;65.58;101379.38;4934679;28;20050;-84
2023/10/08 09:07:52;;;;;;;2.85;1.90;;;;;;;17.53;65.67;101382.16;4940638;28;20062;-83
2023/10/08 09:10:19;;;;;;;5.13;2.47;;;;;;;17.63;64.72;101382.78;4939608;28;20039;-84
2023/10/08 09:12:46;;;;;;;4.43;1.95;;;;;;;17.62;63.63;101381.88;4925034;29;20062;-84
2023/10/08 09:15:14;;;;;;;7.80;2.47;;;;;;;17.77;64.50;101379.69;4945061;29;20047;-84
2023/10/08 09:17:41;;;;;;;10.02;2.72;;;;;;;17.73;64.74;101390.41;4948413;29;20043;-84
2023/10/08 09:20:08;;;;;;;7.97;2.20;;;;;;;17.77;64.86;101390.31;4921491;29;20110;-83
2023/10/08 09:22:35;;;;;;;4.18;2.35;;;;;;;17.86;63.54;101382.09;4919766;29;20517;-83
2023/10/08 09:25:07;;;;;;;4.85;2.05;;;;;;;18.02;63.54;101391.34;4939101;28;20051;-83
2023/10/08 09:27:37;;;;;;;4.78;2.90;;;;;;;17.93;63.16;101388.97;4916414;28;20043;-84
2023/10/08 09:30:08;;;;;;;6.18;3.58;;;;;;;18.24;62.91;101382.69;4925434;29;20494;-84
2023/10/08 09:32:39;;;;;;;4.75;2.65;;;;;;;18.01;62.84;101378.97;4934626;28;20044;-83
2023/10/08 09:35:07;;;;;;;7.45;2.05;;;;;;;18.16;61.88;101369.66;4929614;28;20051;-84
2023/10/08 09:37:35;;;;;;;3.53;1.88;;;;;;;18.34;62.76;101370.84;4916685;29;20050;-84
2023/10/08 09:40:08;;;;;;;3.30;1.80;;;;;;;18.47;62.67;101367.78;4911119;29;20054;-83
2023/10/08 09:42:39;;;;;;;6.97;2.72;;;;;;;18.60;61.71;101369.13;4929548;29;20062;-83
2023/10/08 09:45:08;;;;;;;3.42;2.03;;;;;;;18.45;62.11;101362.53;4914312;29;20081;-84
2023/10/08 09:47:38;;;;;;;9.40;2.30;;;;;;;18.58;60.85;101358.53;4922149;29;20139;-84
2023/10/08 09:50:11;;;;;;;8.57;2.67;;;;;;;18.83;61.56;101351.47;4931005;28;20111;-84
2023/10/08 09:52:57;;;;;;;;;;;;;;;19.01;60.14;101350.88;4936650;28;20052;-84
2023/10/08 09:55:24;;;;;;;3.72;1.80;;;;;;;19.25;59.45;101365.06;4919209;28;20011;-83
2023/10/08 09:57:51;;;;;;;5.82;2.40;;;;;;;19.15;59.23;101376.09;4920402;28;20051;-83
2023/10/08 10:00:29;;;;;;;4.97;1.90;;;;;;;19.02;59.06;101371.22;4931565;28;20075;-84
2023/10/08 10:03:02;;;;;;;5.00;2.30;;;;;;;19.16;59.85;101372.53;4917927;28;20058;-83
2023/10/08 10:05:31;;;;;;;3.80;1.73;;;;;;;19.43;58.07;101374.16;4907254;29;20066;-83
2023/10/08 10:07:58;;;;;;;6.18;1.95;;;;;;;19.60;57.79;101364.69;4922223;28;20174;-84
2023/10/08 10:10:27;;;;;;;4.68;2.00;;;;;;;19.57;57.08;101362.16;4908630;29;20055;-83
2023/10/08 10:13:03;;;;;;;4.45;1.80;;;;;;;20.02;57.10;101361.31;4925940;28;20055;-84
2023/10/08 10:15:35;;;;;;;7.28;2.03;;;;;;;19.87;55.92;101361.91;4888136;29;20081;-84
2023/10/08 10:18:13;;;;;;;5.07;2.30;;;;;;;20.09;57.49;101362.78;4931741;28;20047;-84
2023/10/08 10:20:53;;;;;;;3.97;1.80;;;;;;;20.58;57.08;101356.34;4925626;28;20059;-84
2023/10/08 10:23:42;;;;;;;4.75;2.22;;;;;;;20.47;56.20;101360.34;4906161;29;20133;-84
2023/10/08 10:26:30;;;;;;;3.97;2.10;;;;;;;20.58;55.70;101359.91;4920415;28;20510;-84
2023/10/08 10:29:15;;;;;;;4.28;1.95;;;;;;;20.65;56.84;101349.81;4931418;28;20051;-84
2023/10/08 10:31:47;;;;;;;6.72;2.25;;;;;;;20.58;56.70;101351.00;4907275;28;20044;-84
2023/10/08 10:34:16;;;;;;;6.30;2.15;;;;;;;20.82;56.03;101355.31;4922860;28;20155;-84
2023/10/08 10:36:49;;;;;;;4.22;1.67;;;;;;;20.99;54.85;101359.06;4936887;28;20134;-84
2023/10/08 10:39:17;;;;;;;4.20;1.80;;;;;;;20.95;56.77;101350.31;4912882;28;20078;-84
2023/10/08 10:41:53;;;;;;;7.15;2.25;;;;;;;21.19;53.86;101350.19;4929354;28;20047;-84
2023/10/08 10:44:24;;;;;;;5.22;2.13;;;;;;;20.82;54.35;101352.66;4934671;28;20047;-84
2023/10/08 10:46:50;;;;;;;4.93;1.77;;;;;;;20.84;54.33;101340.13;4950203;28;20047;-84
2023/10/08 10:49:31;;;;;;;2.92;1.50;;;;;;;20.78;52.80;101337.75;4935910;28;20074;-84
2023/10/08 10:51:58;;;;;;;3.33;1.70;;;;;;;21.08;53.27;101336.44;4950858;28;20513;-84
2023/10/08 10:54:25;;;;;;;5.47;2.00;;;;;;;20.92;54.30;101336.25;4911321;29;20158;-84
2023/10/08 10:57:17;;;;;;;6.90;2.10;;;;;;;20.90;50.92;101333.66;4914233;28;20372;-84
2023/10/08 10:59:53;;;;;;;3.65;1.95;;;;;;;20.82;51.12;101336.66;4921593;29;20050;-84
2023/10/08 11:02:30;;;;;;;4.15;1.92;;;;;;;21.18;51.23;101335.94;4935311;28;20051;-84
2023/10/08 11:05:19;;;;;;;4.88;1.65;;;;;;;21.12;51.31;101328.22;4945310;28;20063;-84
2023/10/08 11:07:49;;;;;;;5.38;2.00;;;;;;;20.98;51.19;101335.97;4930220;28;20054;-84
2023/10/08 11:10:16;;;;;;;2.95;1.63;;;;;;;21.16;51.50;101335.16;4914713;28;20512;-84
2023/10/08 11:12:46;;;;;;;3.60;2.17;;;;;;;21.50;50.46;101330.06;4943489;28;20057;-84
2023/10/08 11:15:15;;;;;;;5.28;2.20;;;;;;;21.58;50.84;101327.94;4934755;29;20054;-84
2023/10/08 11:17:44;;;;;;;7.63;2.20;;;;;;;21.94;49.59;101327.13;4917790;28;20062;-84
2023/10/08 11:20:27;;;;;;;3.95;1.77;;;;;;;22.32;48.77;101326.13;4915113;28;20134;-84
2023/10/08 11:22:54;;;;;;;5.10;2.15;;;;;;;21.99;48.71;101325.06;4924018;29;20047;-84
2023/10/08 11:25:30;;;;;;;4.10;2.00;;;;;;;22.35;49.76;101318.00;4934706;28;20047;-84
2023/10/08 11:28:10;;;;;;;4.10;1.88;;;;;;;22.17;48.44;101309.94;4943400;28;20051;-84
2023/10/08 11:30:42;;;;;;;6.50;1.92;;;;;;;22.60;48.89;101308.72;4933959;29;20055;-85
2023/10/08 11:33:15;;;;;;;5.05;1.90;;;;;;;22.87;48.09;101304.59;4920563;29;20074;-84
2023/10/08 11:36:25;;;;;;;;;;;;;;;22.83;47.99;101307.53;4922196;29;20048;-84
2023/10/08 11:38:53;;;;;;;5.00;1.83;;;;;;;23.26;47.86;101300.75;4889098;29;19923;-84
2023/10/08 11:41:23;;;;;;;5.28;2.08;;;;;;;23.20;47.96;101297.53;4925359;28;20518;-84
2023/10/08 11:43:56;;;;;;;3.08;1.67;;;;;;;23.25;47.54;101290.97;4947359;28;20661;-84
2023/10/08 11:46:32;;;;;;;4.95;1.92;;;;;;;23.40;47.92;101299.13;4939762;28;20524;-84
2023/10/08 11:49:04;;;;;;;5.07;1.90;;;;;;;23.65;47.61;101295.06;4944075;28;20055;-84
2023/10/08 11:51:33;;;;;;;4.40;1.88;;;;;;;23.47;47.06;101294.28;4935786;28;20106;-84
2023/10/08 11:54:05;;;;;;;4.03;2.10;;;;;;;23.53;46.74;101308.19;4937135;28;20047;-84
2023/10/08 11:56:33;;;;;;;2.38;1.48;;;;;;;23.88;46.37;101302.69;4933604;28;20061;-84
2023/10/08 11:59:08;;;;;;;6.25;1.90;;;;;;;24.69;46.94;101316.78;4922208;28;20062;-84
2023/10/08 12:01:37;;;;;;;3.20;1.90;;;;;;;24.86;45.19;101311.25;4910958;29;20040;-85
2023/10/08 12:04:12;;;;;;;6.10;1.98;;;;;;;24.74;45.04;101314.69;4932836;28;20055;-85
2023/10/08 12:06:46;;;;;;;4.65;1.77;;;;;;;24.52;45.06;101310.59;4939219;28;20048;-85
2023/10/08 12:09:14;;;;;;;11.90;2.45;;;;;;;24.76;44.42;101312.75;4927220;28;20065;-84
2023/10/08 12:11:42;;;;;;;4.75;2.03;;;;;;;24.15;44.65;101310.09;4939622;28;20051;-85
2023/10/08 12:14:10;;;;;;;5.55;2.25;;;;;;;24.22;44.22;101306.09;4930773;28;20466;-83
2023/10/08 12:16:39;;;;;;;8.07;2.25;;;;;;;24.81;44.53;101305.31;4937694;28;20047;-85
2023/10/08 12:19:15;;;;;;;3.60;1.95;;;;;;;25.40;44.29;101312.41;4913637;28;20052;-84
2023/10/08 12:21:46;;;;;;;5.60;1.80;;;;;;;25.12;44.30;101308.75;4941009;28;20047;-84
2023/10/08 12:24:13;;;;;;;6.70;2.10;;;;;;;25.21;44.71;101307.31;4931895;28;20044;-83
2023/10/08 12:26:47;;;;;;;6.55;2.00;;;;;;;25.07;44.23;101309.06;4937067;28;20067;-83
2023/10/08 12:29:16;;;;;;;4.63;2.08;;;;;;;25.94;42.92;101304.41;4932956;28;20047;-85
2023/10/08 12:31:47;;;;;;;4.63;1.85;;;;;;;25.32;42.66;101300.31;4922137;29;20054;-84
2023/10/08 12:34:15;;;;;;;5.15;2.03;;;;;;;25.77;42.59;101300.13;4935110;28;20049;-84
2023/10/08 12:36:42;;;;;;;4.32;2.00;;;;;;;25.71;41.85;101299.66;4908527;28;20052;-84
2023/10/08 12:39:14;;;;;;;3.72;2.10;;;;;;;25.99;43.26;101294.19;4909224;28;20119;-84
2023/10/08 12:41:43;;;;;;;3.23;1.77;;;;;;;25.59;43.08;101294.16;4939393;28;20047;-84
2023/10/08 12:44:11;;;;;;;6.93;2.00;;;;;;;25.77;43.29;101288.53;4933823;28;20884;-84
2023/10/08 12:46:39;;;;;;;9.20;2.20;;;;;;;25.48;44.27;101296.66;4934627;28;20083;-84
2023/10/08 12:49:07;;;;;;;3.60;1.83;;;;;;;25.89;43.38;101289.53;4927908;29;20110;-84
2023/10/08 12:51:35;;;;;;;3.60;1.80;;;;;;;25.75;43.92;101298.50;4937625;28;20086;-84
2023/10/08 12:54:10;;;;;;;4.07;2.10;;;;;;;25.68;44.72;101293.53;4932807;28;20047;-84
2023/10/08 12:56:44;;;;;;;6.10;2.00;;;;;;;25.41;43.88;101292.66;4925650;28;20057;-85
2023/10/08 12:59:21;;;;;;;3.22;1.75;;;;;;;25.64;43.77;101294.69;4909619;29;20070;-84
2023/10/08 13:01:54;;;;;;;5.25;2.20;;;;;;;25.56;43.67;101297.00;4921047;28;20043;-84